createdAt,value
2019-03-22T00:00:45.547Z,55.20
2019-03-22T00:03:18.032Z,61.83
2019-03-22T00:05:50.409Z,66.63
2019-03-22T00:08:22.875Z,52.00
2019-03-22T00:10:54.902Z,52.57
2019-03-22T00:13:27.418Z,52.30
2019-03-22T00:15:59.895Z,59.00
2019-03-22T00:18:32.477Z,57.60
2019-03-22T00:21:04.745Z,54.60
2019-03-22T00:23:37.214Z,56.60
2019-03-22T00:26:09.589Z,58.37
2019-03-22T00:28:41.960Z,60.37
2019-03-22T00:31:14.323Z,59.90
2019-03-22T00:33:46.703Z,57.83
2019-03-22T00:36:19.128Z,68.73
2019-03-22T00:38:52.677Z,66.27
2019-03-22T00:41:25.049Z,62.93
2019-03-22T00:43:57.419Z,66.87
2019-03-22T00:46:29.792Z,69.80
2019-03-22T00:49:02.885Z,65.13
2019-03-22T00:51:35.251Z,70.03
2019-03-22T00:54:07.445Z,70.20
2019-03-22T00:56:39.792Z,62.97
2019-03-22T00:59:13.402Z,60.37
2019-03-22T01:01:45.764Z,60.57
2019-03-22T01:04:18.187Z,60.63
2019-03-22T01:06:50.506Z,63.57
2019-03-22T01:09:22.881Z,63.70
2019-03-22T01:11:55.250Z,63.93
2019-03-22T01:14:27.624Z,65.67
2019-03-22T01:16:59.999Z,65.27
2019-03-22T01:19:32.369Z,61.07
2019-03-22T01:22:05.044Z,57.43
2019-03-22T01:24:37.419Z,54.40
2019-03-22T01:27:09.793Z,61.83
2019-03-22T01:29:41.788Z,72.40
2019-03-22T01:32:13.717Z,61.53
2019-03-22T01:34:46.089Z,60.07
2019-03-22T01:37:18.459Z,61.37
2019-03-22T01:39:51.443Z,60.60
2019-03-22T01:42:23.713Z,62.23
2019-03-22T01:44:55.714Z,64.97
2019-03-22T01:47:27.640Z,55.70
2019-03-22T01:50:00.012Z,65.63
2019-03-22T01:52:32.384Z,65.33
2019-03-22T01:55:04.757Z,60.00
2019-03-22T01:57:37.023Z,61.17
2019-03-22T02:00:17.333Z,59.87
2019-03-22T02:02:49.651Z,68.30
2019-03-22T02:05:22.027Z,59.87
2019-03-22T02:07:54.057Z,66.37
2019-03-22T02:10:26.463Z,70.63
2019-03-22T02:12:58.839Z,64.23
2019-03-22T02:15:31.207Z,63.23
2019-03-22T02:18:03.748Z,70.60
2019-03-22T02:20:36.512Z,66.23
2019-03-22T02:23:08.834Z,72.00
2019-03-22T02:25:41.208Z,67.13
2019-03-22T02:28:13.581Z,56.33
2019-03-22T02:30:45.950Z,62.83
2019-03-22T02:33:18.321Z,60.47
2019-03-22T02:35:50.693Z,61.30
2019-03-22T02:38:23.066Z,59.10
2019-03-22T02:40:55.628Z,61.33
2019-03-22T02:43:27.918Z,66.03
2019-03-22T02:46:00.409Z,63.10
2019-03-22T02:48:32.758Z,64.83
2019-03-22T02:51:05.131Z,59.77
2019-03-22T02:53:37.060Z,62.03
2019-03-22T02:56:09.518Z,66.77
2019-03-22T02:58:42.049Z,64.00
2019-03-22T03:01:15.353Z,60.10
2019-03-22T03:03:47.721Z,69.00
2019-03-22T03:06:20.213Z,65.97
2019-03-22T03:08:52.562Z,67.53
2019-03-22T03:11:24.936Z,58.43
2019-03-22T03:13:57.301Z,58.47
2019-03-22T03:16:29.571Z,67.90
2019-03-22T03:19:01.552Z,69.77
2019-03-22T03:21:33.910Z,65.17
2019-03-22T03:24:06.285Z,64.57
2019-03-22T03:26:38.648Z,65.37
2019-03-22T03:29:10.625Z,66.93
2019-03-22T03:31:43.001Z,65.53
2019-03-22T03:34:15.521Z,63.43
2019-03-22T03:36:47.852Z,56.50
2019-03-22T03:39:20.209Z,54.13
2019-03-22T03:41:52.139Z,69.43
2019-03-22T03:44:24.540Z,59.60
2019-03-22T03:46:56.912Z,59.47
2019-03-22T03:49:28.875Z,56.30
2019-03-22T03:52:01.252Z,63.03
2019-03-22T03:54:33.634Z,65.00
2019-03-22T03:57:07.022Z,60.83
2019-03-22T03:59:39.793Z,68.17
2019-03-22T04:02:12.170Z,58.73
2019-03-22T04:04:44.481Z,64.10
2019-03-22T04:07:16.807Z,62.83
2019-03-22T04:09:48.767Z,57.10
2019-03-22T04:12:20.728Z,58.73
2019-03-22T04:14:53.112Z,53.93
2019-03-22T04:17:25.483Z,64.97
2019-03-22T04:19:57.907Z,67.57
2019-03-22T04:22:30.090Z,55.73
2019-03-22T04:25:02.490Z,52.47
2019-03-22T04:27:34.922Z,55.73
2019-03-22T04:30:09.082Z,47.13
2019-03-22T04:32:41.511Z,50.40
2019-03-22T04:35:13.925Z,54.10
2019-03-22T04:37:45.866Z,64.17
2019-03-22T04:40:30.266Z,56.80
2019-03-22T04:43:02.621Z,54.50
2019-03-22T04:45:34.983Z,48.23
2019-03-22T04:48:14.725Z,48.57
2019-03-22T04:50:47.112Z,47.47
2019-03-22T04:53:22.090Z,59.23
2019-03-22T04:55:58.291Z,53.50
2019-03-22T04:58:30.562Z,54.63
2019-03-22T05:01:03.249Z,43.37
2019-03-22T05:03:35.619Z,55.20
2019-03-22T05:06:07.987Z,51.23
2019-03-22T05:08:40.887Z,53.13
2019-03-22T05:11:13.559Z,50.77
2019-03-22T05:13:46.457Z,52.60
2019-03-22T05:16:19.007Z,52.60
2019-03-22T05:18:51.698Z,52.60
2019-03-22T05:21:24.892Z,49.70
2019-03-22T05:23:57.471Z,49.57
2019-03-22T05:26:30.249Z,45.37
2019-03-22T05:29:02.621Z,49.83
2019-03-22T05:32:01.404Z,47.87
2019-03-22T05:34:33.366Z,55.83
2019-03-22T05:37:05.849Z,56.73
2019-03-22T05:39:38.213Z,52.33
2019-03-22T05:42:10.590Z,52.90
2019-03-22T05:44:42.964Z,49.97
2019-03-22T05:47:15.342Z,47.70
2019-03-22T05:49:47.764Z,48.30
2019-03-22T05:52:20.183Z,44.57
2019-03-22T05:54:52.546Z,51.40
2019-03-22T05:57:24.491Z,49.47
2019-03-22T05:59:56.885Z,50.10
2019-03-22T06:02:29.255Z,49.07
2019-03-22T06:05:01.626Z,41.50
2019-03-22T06:07:33.951Z,44.00
2019-03-22T06:10:07.495Z,50.00
2019-03-22T06:12:39.875Z,40.13
2019-03-22T06:15:12.344Z,50.10
2019-03-22T06:17:51.681Z,54.27
2019-03-22T06:20:18.753Z,48.77
2019-03-22T06:22:51.200Z,47.90
2019-03-22T06:25:23.585Z,45.43
2019-03-22T06:27:55.950Z,47.33
2019-03-22T06:30:28.731Z,49.43
2019-03-22T06:33:01.092Z,49.50
2019-03-22T06:35:33.062Z,50.37
2019-03-22T06:38:05.436Z,50.80
2019-03-22T06:40:37.410Z,47.43
2019-03-22T06:43:09.759Z,46.47
2019-03-22T06:45:42.236Z,66.03
2019-03-22T06:48:14.712Z,96.07
2019-03-22T06:50:47.079Z,54.37
2019-03-22T06:53:19.450Z,45.07
2019-03-22T06:55:51.828Z,73.77
2019-03-22T06:58:24.408Z,75.00
2019-03-22T07:00:56.877Z,92.10
2019-03-22T07:03:29.258Z,56.33
2019-03-22T07:06:01.339Z,45.70
2019-03-22T07:08:33.981Z,42.57
2019-03-22T07:11:06.376Z,48.27
2019-03-22T07:13:41.804Z,62.00
2019-03-22T07:16:14.853Z,53.77
2019-03-22T07:18:50.354Z,49.67
2019-03-22T07:21:22.724Z,51.70
2019-03-22T07:23:55.096Z,45.40
2019-03-22T07:26:29.970Z,45.57
2019-03-22T07:29:01.476Z,51.33
2019-03-22T07:31:35.755Z,45.73
2019-03-22T07:34:07.398Z,44.00
2019-03-22T07:36:39.926Z,35.87
2019-03-22T07:39:12.297Z,42.97
2019-03-22T07:41:44.669Z,40.90
2019-03-22T07:44:17.142Z,42.87
2019-03-22T07:46:49.515Z,41.33
2019-03-22T07:49:22.899Z,40.20
2019-03-22T07:51:55.376Z,41.50
2019-03-22T07:54:27.748Z,43.03
2019-03-22T07:57:00.126Z,42.77
2019-03-22T07:59:32.502Z,39.23
2019-03-22T08:02:04.864Z,40.10
2019-03-22T08:04:37.243Z,44.75
2019-03-22T08:07:09.608Z,43.73
2019-03-22T08:09:42.323Z,43.67
2019-03-22T08:12:14.667Z,44.47
2019-03-22T08:14:47.055Z,43.20
2019-03-22T08:17:19.418Z,40.33
2019-03-22T08:19:51.372Z,34.90
2019-03-22T08:22:23.555Z,40.77
2019-03-22T08:24:55.902Z,35.37
2019-03-22T08:27:28.297Z,37.57
2019-03-22T08:30:00.663Z,37.97
2019-03-22T08:32:33.029Z,36.80
2019-03-22T08:35:05.540Z,35.73
2019-03-22T08:37:37.468Z,28.60
2019-03-22T08:40:09.846Z,37.77
2019-03-22T08:42:42.710Z,33.37
2019-03-22T08:45:14.878Z,36.70
2019-03-22T08:47:47.263Z,34.90
2019-03-22T08:50:19.634Z,37.33
2019-03-22T08:52:52.053Z,35.57
2019-03-22T08:55:24.383Z,34.17
2019-03-22T08:57:56.844Z,32.53
2019-03-22T09:00:38.652Z,33.40
2019-03-22T09:03:02.772Z,39.23
2019-03-22T09:05:35.234Z,34.93
2019-03-22T09:08:07.598Z,31.57
2019-03-22T09:10:39.832Z,36.40
2019-03-22T09:13:12.112Z,30.20
2019-03-22T09:15:44.486Z,29.93
2019-03-22T09:18:16.955Z,29.40
2019-03-22T09:20:49.345Z,29.80
2019-03-22T09:23:21.310Z,29.17
2019-03-22T09:25:53.265Z,26.67
2019-03-22T09:28:25.630Z,28.07
2019-03-22T09:31:09.869Z,26.27
2019-03-22T09:33:32.019Z,25.57
2019-03-22T09:36:04.416Z,29.50
2019-03-22T09:38:36.976Z,27.83
2019-03-22T09:41:09.317Z,30.23
2019-03-22T09:43:41.810Z,29.20
2019-03-22T09:46:14.180Z,25.50
2019-03-22T09:48:46.568Z,29.30
2019-03-22T09:51:18.909Z,27.13
2019-03-22T09:53:51.311Z,27.33
2019-03-22T09:56:23.267Z,22.87
2019-03-22T09:58:55.618Z,23.30
2019-03-22T10:01:27.992Z,23.60
2019-03-22T10:03:59.995Z,24.10
2019-03-22T10:06:32.468Z,25.40
2019-03-22T10:09:06.337Z,29.73
2019-03-22T10:11:38.728Z,26.93
2019-03-22T10:14:11.082Z,29.00
2019-03-22T10:16:43.451Z,26.17
2019-03-22T10:19:15.500Z,22.13
2019-03-22T10:21:47.940Z,22.43
2019-03-22T10:24:20.373Z,27.13
2019-03-22T10:26:52.798Z,23.63
2019-03-22T10:29:25.222Z,19.20
2019-03-22T10:31:57.531Z,24.70
2019-03-22T10:34:29.737Z,21.40
2019-03-22T10:37:02.132Z,20.07
2019-03-22T10:39:34.504Z,23.10
2019-03-22T10:42:07.833Z,21.17
2019-03-22T10:44:40.173Z,20.17
2019-03-22T10:47:12.554Z,19.47
2019-03-22T10:49:44.733Z,23.17
2019-03-22T10:52:17.449Z,20.53
2019-03-22T10:54:49.753Z,22.60
2019-03-22T10:57:22.113Z,22.13
2019-03-22T10:59:54.393Z,21.40
2019-03-22T11:02:27.278Z,21.33
2019-03-22T11:05:01.778Z,23.03
2019-03-22T11:07:33.342Z,23.20
2019-03-22T11:10:14.728Z,21.80
2019-03-22T11:12:47.206Z,22.60
2019-03-22T11:15:19.588Z,22.50
2019-03-22T11:17:52.045Z,21.47
2019-03-22T11:20:23.995Z,23.43
2019-03-22T11:22:56.415Z,20.30
2019-03-22T11:25:29.014Z,22.20
2019-03-22T11:28:01.462Z,20.20
2019-03-22T11:30:34.687Z,23.30
2019-03-22T11:33:07.098Z,19.77
2019-03-22T11:35:39.470Z,19.83
2019-03-22T11:38:11.852Z,20.53
2019-03-22T11:40:44.221Z,20.63
2019-03-22T11:43:16.581Z,22.57
2019-03-22T11:45:48.625Z,21.90
2019-03-22T11:48:21.027Z,20.43
2019-03-22T11:50:53.398Z,22.70
2019-03-22T11:53:25.818Z,21.87
2019-03-22T11:55:58.148Z,22.10
2019-03-22T11:58:30.724Z,35.17
2019-03-22T12:01:02.928Z,20.47
2019-03-22T12:03:36.376Z,20.20
2019-03-22T12:06:08.535Z,24.40
2019-03-22T12:08:40.537Z,22.80
2019-03-22T12:11:12.637Z,25.33
2019-03-22T12:13:45.063Z,27.20
2019-03-22T12:16:17.421Z,27.90
2019-03-22T12:18:50.482Z,24.97
2019-03-22T12:21:22.982Z,23.40
2019-03-22T12:23:56.335Z,23.77
2019-03-22T12:26:29.270Z,26.30
2019-03-22T12:29:01.648Z,24.00
2019-03-22T12:31:34.003Z,29.47
2019-03-22T12:34:06.411Z,25.80
2019-03-22T12:36:38.807Z,29.43
2019-03-22T12:39:11.124Z,27.50
2019-03-22T12:41:43.501Z,26.33
2019-03-22T12:44:15.874Z,23.20
2019-03-22T12:46:49.305Z,24.03
2019-03-22T12:49:21.953Z,24.10
2019-03-22T12:51:54.385Z,26.27
2019-03-22T12:54:26.795Z,25.33
2019-03-22T12:56:59.585Z,26.07
2019-03-22T12:59:31.943Z,24.90
2019-03-22T13:02:04.310Z,24.63
2019-03-22T13:04:36.683Z,28.97
2019-03-22T13:07:09.057Z,27.87
2019-03-22T13:09:41.428Z,28.77
2019-03-22T13:12:13.411Z,30.47
2019-03-22T13:14:45.764Z,36.03
2019-03-22T13:17:18.151Z,63.70
2019-03-22T13:19:50.516Z,52.80
2019-03-22T13:22:22.952Z,36.07
2019-03-22T13:24:55.365Z,56.77
2019-03-22T13:27:27.880Z,39.47
2019-03-22T13:30:00.720Z,29.30
2019-03-22T13:32:32.819Z,36.90
2019-03-22T13:35:05.214Z,40.20
2019-03-22T13:37:37.626Z,36.50
2019-03-22T13:40:10.306Z,29.73
2019-03-22T13:42:43.299Z,30.83
2019-03-22T13:45:15.671Z,36.43
2019-03-22T13:47:48.141Z,34.73
2019-03-22T13:50:20.518Z,39.63
2019-03-22T13:52:53.090Z,34.87
2019-03-22T13:55:26.744Z,37.97
2019-03-22T13:57:59.178Z,30.27
2019-03-22T14:00:31.169Z,36.23
2019-03-22T14:03:03.610Z,38.10
2019-03-22T14:05:35.981Z,39.80
2019-03-22T14:08:07.948Z,46.47
2019-03-22T14:10:39.890Z,40.40
2019-03-22T14:13:12.264Z,35.43
2019-03-22T14:15:44.639Z,37.33
2019-03-22T14:18:17.428Z,43.10
2019-03-22T14:20:50.927Z,37.50
2019-03-22T14:23:23.400Z,34.03
2019-03-22T14:25:55.975Z,35.03
2019-03-22T14:28:29.297Z,36.57
2019-03-22T14:31:01.268Z,32.43
2019-03-22T14:33:33.789Z,30.97
2019-03-22T14:36:05.723Z,37.23
2019-03-22T14:38:38.138Z,43.33
2019-03-22T14:41:10.518Z,44.77
2019-03-22T14:43:42.882Z,44.40
2019-03-22T14:46:16.382Z,45.20
2019-03-22T14:48:48.748Z,45.50
2019-03-22T14:51:21.787Z,45.43
2019-03-22T14:53:54.326Z,48.80
2019-03-22T14:56:26.693Z,48.83
2019-03-22T14:58:59.062Z,45.00
2019-03-22T15:01:31.439Z,51.43
2019-03-22T15:04:03.812Z,52.20
2019-03-22T15:06:36.188Z,46.67
2019-03-22T15:09:09.366Z,48.80
2019-03-22T15:11:41.746Z,66.60
2019-03-22T15:14:22.612Z,67.67
2019-03-22T15:17:02.667Z,49.03
2019-03-22T15:19:48.258Z,41.13
2019-03-22T15:22:26.411Z,44.97
2019-03-22T15:25:15.626Z,46.00
2019-03-22T15:27:56.072Z,44.27
2019-03-22T15:30:31.222Z,43.77
2019-03-22T15:33:11.071Z,46.47
2019-03-22T15:35:50.484Z,44.63
2019-03-22T15:38:31.167Z,41.77
2019-03-22T15:41:03.457Z,47.47
2019-03-22T15:43:35.820Z,45.37
2019-03-22T15:46:08.212Z,47.17
2019-03-22T15:48:40.699Z,45.77
2019-03-22T15:51:13.059Z,43.77
2019-03-22T15:53:45.025Z,37.63
2019-03-22T15:56:17.011Z,40.97
2019-03-22T15:58:49.425Z,65.93
2019-03-22T16:01:21.624Z,53.53
2019-03-22T16:03:53.963Z,61.90
2019-03-22T16:06:26.345Z,78.33
2019-03-22T16:08:58.280Z,76.90
2019-03-22T16:11:30.703Z,59.53
2019-03-22T16:14:03.042Z,49.27
2019-03-22T16:16:35.030Z,46.10
2019-03-22T16:19:07.477Z,45.40
2019-03-22T16:21:39.456Z,41.77
2019-03-22T16:24:11.822Z,56.20
2019-03-22T16:26:44.193Z,55.10
2019-03-22T16:29:16.560Z,52.00
2019-03-22T16:31:48.936Z,50.67
2019-03-22T16:34:21.307Z,56.63
2019-03-22T16:36:53.295Z,56.13
2019-03-22T16:39:26.046Z,58.20
2019-03-22T16:41:58.519Z,56.03
2019-03-22T16:44:30.894Z,55.20
2019-03-22T16:47:03.374Z,55.10
2019-03-22T16:49:35.764Z,54.03
2019-03-22T16:52:08.209Z,46.47
2019-03-22T16:54:40.588Z,47.17
2019-03-22T16:57:12.953Z,45.93
2019-03-22T16:59:45.326Z,48.97
2019-03-22T17:02:17.703Z,49.50
2019-03-22T17:04:50.082Z,51.93
2019-03-22T17:07:22.442Z,49.87
2019-03-22T17:09:55.242Z,50.03
2019-03-22T17:12:27.195Z,59.93
2019-03-22T17:14:59.194Z,51.43
2019-03-22T17:17:31.536Z,49.77
2019-03-22T17:20:04.098Z,53.13
2019-03-22T17:22:36.476Z,57.17
2019-03-22T17:25:09.158Z,50.10
2019-03-22T17:27:42.447Z,52.73
2019-03-22T17:30:15.437Z,50.27
2019-03-22T17:32:47.811Z,47.63
2019-03-22T17:35:20.172Z,53.87
2019-03-22T17:37:53.579Z,58.40
2019-03-22T17:40:25.942Z,69.60
2019-03-22T17:42:58.317Z,81.80
2019-03-22T17:45:30.685Z,76.23
2019-03-22T17:48:03.055Z,81.67
2019-03-22T17:50:35.441Z,87.50
2019-03-22T17:53:07.812Z,96.10
2019-03-22T17:55:40.174Z,83.57
2019-03-22T17:58:12.549Z,119.73
2019-03-22T18:00:45.761Z,128.83
2019-03-22T18:03:18.121Z,164.47
2019-03-22T18:05:50.119Z,176.60
2019-03-22T18:08:22.451Z,141.03
2019-03-22T18:10:54.435Z,158.93
2019-03-22T18:13:26.775Z,154.87
2019-03-22T18:15:59.156Z,161.37
2019-03-22T18:18:31.533Z,162.33
2019-03-22T18:21:04.006Z,157.00
2019-03-22T18:23:36.489Z,149.80
2019-03-22T18:26:08.953Z,153.17
2019-03-22T18:28:42.321Z,145.57
2019-03-22T18:31:14.744Z,133.70
2019-03-22T18:33:48.209Z,132.50
2019-03-22T18:36:20.595Z,124.80
2019-03-22T18:38:52.966Z,126.27
2019-03-22T18:41:25.900Z,150.77
2019-03-22T18:43:59.817Z,155.60
2019-03-22T18:46:33.121Z,176.77
2019-03-22T18:49:07.474Z,193.30
2019-03-22T18:51:44.233Z,198.73
2019-03-22T18:54:18.247Z,148.33
2019-03-22T18:56:52.493Z,150.77
2019-03-22T18:59:27.340Z,129.27
2019-03-22T19:02:01.334Z,120.47
2019-03-22T19:04:43.624Z,124.83
2019-03-22T19:07:11.229Z,92.73
2019-03-22T19:09:54.148Z,138.83
2019-03-22T19:12:30.383Z,99.50
2019-03-22T19:15:04.307Z,113.20
2019-03-22T19:17:39.170Z,85.27
2019-03-22T19:20:15.052Z,89.43
2019-03-22T19:22:48.651Z,86.00
2019-03-22T19:25:24.033Z,82.70
2019-03-22T19:27:57.246Z,75.47
2019-03-22T19:30:32.196Z,117.57
2019-03-22T19:33:06.578Z,121.07
2019-03-22T19:35:39.204Z,86.53
2019-03-22T19:38:20.223Z,85.70
2019-03-22T19:41:01.975Z,104.30
2019-03-22T19:43:37.630Z,111.30
2019-03-22T19:46:13.218Z,101.60
2019-03-22T19:48:45.542Z,94.03
2019-03-22T19:51:17.930Z,85.33
2019-03-22T19:53:50.632Z,85.80
2019-03-22T19:56:26.044Z,76.63
2019-03-22T19:59:00.731Z,84.93
2019-03-22T20:01:35.970Z,79.43
2019-03-22T20:04:11.183Z,65.10
2019-03-22T20:06:44.251Z,80.67
2019-03-22T20:09:17.682Z,69.63
2019-03-22T20:11:51.826Z,83.07
2019-03-22T20:14:26.145Z,86.87
2019-03-22T20:16:59.587Z,76.40
2019-03-22T20:19:33.971Z,79.77
2019-03-22T20:22:15.366Z,75.77
2019-03-22T20:24:43.029Z,97.10
2019-03-22T20:27:16.520Z,99.83
2019-03-22T20:29:52.088Z,96.00
2019-03-22T20:32:33.024Z,75.27
2019-03-22T20:35:16.038Z,65.80
2019-03-22T20:37:45.290Z,80.60
2019-03-22T20:40:21.437Z,70.97
2019-03-22T20:42:57.156Z,62.80
2019-03-22T20:45:29.972Z,68.50
2019-03-22T20:48:04.579Z,69.70
2019-03-22T20:50:37.522Z,55.60
2019-03-22T20:53:10.546Z,59.33
2019-03-22T20:55:43.836Z,57.20
2019-03-22T20:58:16.695Z,55.00
2019-03-22T21:00:49.614Z,55.73
2019-03-22T21:03:22.227Z,61.27
2019-03-22T21:05:55.039Z,54.40
2019-03-22T21:08:28.719Z,48.70
2019-03-22T21:11:02.047Z,49.47
2019-03-22T21:13:34.743Z,53.17
2019-03-22T21:16:10.908Z,52.63
2019-03-22T21:18:43.276Z,46.43
2019-03-22T21:21:15.660Z,45.83
2019-03-22T21:23:47.634Z,46.73
2019-03-22T21:26:19.603Z,41.90
2019-03-22T21:28:51.942Z,42.37
2019-03-22T21:31:24.434Z,51.43
2019-03-22T21:33:56.437Z,50.60
2019-03-22T21:36:29.628Z,48.63
2019-03-22T21:39:02.502Z,52.37
2019-03-22T21:41:35.175Z,55.63
2019-03-22T21:44:07.112Z,50.13
2019-03-22T21:46:39.588Z,44.87
2019-03-22T21:49:12.071Z,43.13
2019-03-22T21:51:44.637Z,44.97
2019-03-22T21:54:16.595Z,47.90
2019-03-22T21:56:49.103Z,48.97
2019-03-22T21:59:21.466Z,46.90
2019-03-22T22:01:55.045Z,41.13
2019-03-22T22:04:27.419Z,40.47
2019-03-22T22:07:01.428Z,43.80
2019-03-22T22:09:33.787Z,45.73
2019-03-22T22:12:06.500Z,49.00
2019-03-22T22:14:41.067Z,47.90
2019-03-22T22:17:12.544Z,50.77
2019-03-22T22:19:45.065Z,56.27
2019-03-22T22:22:17.388Z,46.37
2019-03-22T22:24:49.814Z,39.40
2019-03-22T22:27:22.140Z,44.53
2019-03-22T22:29:54.096Z,47.47
2019-03-22T22:32:26.477Z,47.03
2019-03-22T22:34:58.429Z,46.17
2019-03-22T22:37:33.194Z,40.13
2019-03-22T22:40:11.503Z,37.33
2019-03-22T22:42:51.749Z,35.93
2019-03-22T22:45:25.166Z,38.10
2019-03-22T22:47:57.603Z,43.17
2019-03-22T22:50:29.969Z,39.00
2019-03-22T22:53:02.350Z,41.23
2019-03-22T22:55:35.231Z,40.53
2019-03-22T22:58:07.542Z,34.60
2019-03-22T23:00:40.582Z,46.07
2019-03-22T23:03:12.967Z,77.50
2019-03-22T23:05:45.334Z,435.07
2019-03-22T23:08:17.755Z,588.27
2019-03-22T23:10:50.068Z,200.00
2019-03-22T23:13:22.449Z,123.57
2019-03-22T23:15:54.812Z,382.67
2019-03-22T23:18:27.191Z,455.17
2019-03-22T23:20:59.556Z,117.47
2019-03-22T23:23:31.938Z,109.90
2019-03-22T23:26:04.314Z,47.13
2019-03-22T23:28:36.771Z,105.37
2019-03-22T23:31:08.707Z,113.13
2019-03-22T23:33:41.111Z,56.87
2019-03-22T23:36:20.309Z,114.70
2019-03-22T23:38:47.087Z,46.43
2019-03-22T23:41:19.510Z,62.63
2019-03-22T23:43:51.922Z,54.37
2019-03-22T23:46:24.399Z,45.03
2019-03-22T23:48:56.370Z,41.27
2019-03-22T23:51:28.735Z,37.07
2019-03-22T23:54:02.852Z,40.47
2019-03-22T23:56:35.218Z,42.73
2019-03-22T23:59:07.706Z,49.00
